Academy, South Dakota
Current Conditions -  °F | °C
As of 10:55 PM on Thursday 30 Oct 2014 (Local Time) from K9V9 Reporting Station
Overcast Overcast  
Wind Chill: -4°   Ceiling: 2200
Heat Index:   Visibility: 10mi
Dew Point: -3°   Wind: 12mph
Humidity: 74%   Direction: 40°NE
Pressure: 30.53"   Gusts: 20mph
Location:  43.4255°N, 98.9806°W
Report Text: K9V9 310355Z AUTO 04010G17KT 10SM OVC022 01/M03 A3053 RMK AO2 T00081034
Loading
Personal Weather Stations






























Interactive Weather Map
Tropical Storm Tracking
New forecast layout! Learn more

10-Day Weather Forecast

Advertisements
Track Severe Weather on mobile